createdAt,value
2022-08-21T00:02:28.933Z,17.87
2022-08-21T00:04:58.943Z,17.81
2022-08-21T00:07:29.280Z,17.80
2022-08-21T00:10:00.905Z,17.90
2022-08-21T00:12:30.697Z,17.95
2022-08-21T00:15:00.823Z,17.85
2022-08-21T00:17:30.661Z,17.68
2022-08-21T00:20:00.691Z,17.61
2022-08-21T00:22:30.607Z,17.61
2022-08-21T00:25:02.217Z,17.60
2022-08-21T00:27:32.071Z,17.50
2022-08-21T00:30:02.062Z,17.54
2022-08-21T00:32:32.549Z,17.56
2022-08-21T00:35:02.483Z,17.72
2022-08-21T00:37:32.406Z,17.83
2022-08-21T00:40:08.621Z,17.92
2022-08-21T00:42:39.009Z,17.78
2022-08-21T00:45:12.003Z,17.63
2022-08-21T00:47:42.240Z,17.49
2022-08-21T00:52:39.065Z,17.37
2022-08-21T00:55:12.779Z,17.39
2022-08-21T00:57:48.722Z,17.23
2022-08-21T01:00:25.244Z,17.04
2022-08-21T01:02:55.291Z,17.10
2022-08-21T01:05:25.361Z,17.21
2022-08-21T01:07:58.476Z,17.32
2022-08-21T01:10:28.902Z,17.43
2022-08-21T01:13:01.222Z,17.37
2022-08-21T01:15:36.545Z,17.35
2022-08-21T01:18:09.317Z,17.45
2022-08-21T01:20:44.344Z,17.57
2022-08-21T01:23:17.729Z,17.47
2022-08-21T01:25:47.802Z,17.18
2022-08-21T01:28:18.520Z,17.05
2022-08-21T01:30:48.901Z,17.21
2022-08-21T01:33:18.801Z,17.04
2022-08-21T01:35:48.979Z,16.86
2022-08-21T01:38:20.700Z,16.85
2022-08-21T01:40:50.643Z,16.74
2022-08-21T01:43:23.889Z,16.94
2022-08-21T01:46:02.758Z,16.96
2022-08-21T01:48:32.624Z,17.04
2022-08-21T01:51:03.211Z,17.12
2022-08-21T01:53:37.174Z,17.19
2022-08-21T01:56:13.820Z,17.14
2022-08-21T01:58:45.358Z,16.98
2022-08-21T02:01:16.057Z,16.94
2022-08-21T02:03:46.034Z,16.86
2022-08-21T02:06:19.238Z,16.97
2022-08-21T02:08:51.961Z,16.82
2022-08-21T02:11:22.518Z,16.87
2022-08-21T02:13:52.466Z,16.80
2022-08-21T02:16:22.301Z,16.84
2022-08-21T02:18:52.360Z,16.99
2022-08-21T02:21:22.314Z,17.00
2022-08-21T02:23:53.824Z,16.92
2022-08-21T02:26:23.785Z,16.98
2022-08-21T02:28:53.801Z,16.84
2022-08-21T02:31:23.693Z,16.87
2022-08-21T02:33:53.961Z,16.85
2022-08-21T02:36:24.523Z,16.76
2022-08-21T02:38:55.944Z,16.75
2022-08-21T02:41:26.584Z,16.85
2022-08-21T02:43:56.641Z,16.88
2022-08-21T02:46:26.644Z,16.96
2022-08-21T02:48:56.583Z,16.92
2022-08-21T02:51:27.227Z,16.86
2022-08-21T02:53:58.664Z,17.01
2022-08-21T02:56:30.780Z,17.05
2022-08-21T02:59:01.564Z,17.04
2022-08-21T03:01:31.559Z,16.92
2022-08-21T03:04:01.405Z,16.85
2022-08-21T03:06:31.527Z,16.81
2022-08-21T03:09:03.063Z,16.71
2022-08-21T03:11:33.091Z,16.74
2022-08-21T03:14:03.159Z,16.80
2022-08-21T03:16:35.141Z,16.82
2022-08-21T03:19:05.834Z,16.89
2022-08-21T03:21:35.842Z,16.92
2022-08-21T03:24:08.108Z,16.85
2022-08-21T03:26:37.850Z,16.84
2022-08-21T03:29:10.469Z,16.98
2022-08-21T03:31:40.606Z,17.05
2022-08-21T03:34:10.321Z,17.08
2022-08-21T03:36:40.278Z,17.11
2022-08-21T03:39:11.746Z,17.21
2022-08-21T03:41:41.707Z,17.25
2022-08-21T03:44:11.670Z,17.22
2022-08-21T03:46:41.644Z,17.22
2022-08-21T03:49:11.642Z,17.20
2022-08-21T03:53:36.703Z,17.16
2022-08-21T03:56:08.258Z,17.20
2022-08-21T03:58:39.692Z,17.26
2022-08-21T04:01:09.727Z,17.27
2022-08-21T04:03:40.823Z,17.30
2022-08-21T04:06:11.548Z,17.23
2022-08-21T04:08:44.263Z,17.16
2022-08-21T04:11:14.186Z,17.10
2022-08-21T04:13:44.646Z,17.23
2022-08-21T04:16:15.158Z,17.17
2022-08-21T04:18:45.681Z,17.03
2022-08-21T04:21:16.035Z,17.00
2022-08-21T04:23:49.820Z,17.04
2022-08-21T04:26:19.820Z,17.04
2022-08-21T04:28:49.685Z,17.02
2022-08-21T04:31:19.684Z,17.07
2022-08-21T04:33:49.906Z,17.18
2022-08-21T04:36:23.002Z,17.24
2022-08-21T04:38:56.039Z,17.24
2022-08-21T04:41:28.200Z,17.36
2022-08-21T04:43:58.641Z,17.45
2022-08-21T04:46:28.468Z,17.37
2022-08-21T04:48:58.739Z,17.38
2022-08-21T04:51:34.048Z,17.37
2022-08-21T04:54:11.401Z,17.35
2022-08-21T04:56:50.158Z,17.33
2022-08-21T04:59:24.447Z,17.33
2022-08-21T05:01:56.203Z,17.37
2022-08-21T05:04:29.389Z,17.46
2022-08-21T05:07:02.864Z,17.46
2022-08-21T05:09:34.852Z,17.34
2022-08-21T05:12:06.664Z,17.22
2022-08-21T05:14:36.941Z,17.23
2022-08-21T05:17:07.666Z,17.22
2022-08-21T05:19:37.540Z,17.06
2022-08-21T05:22:07.723Z,16.95
2022-08-21T05:24:40.034Z,16.91
2022-08-21T05:27:09.825Z,16.84
2022-08-21T05:29:39.801Z,16.80
2022-08-21T05:32:13.984Z,16.82
2022-08-21T05:34:44.021Z,16.79
2022-08-21T05:37:15.438Z,16.90
2022-08-21T05:40:21.690Z,16.89
2022-08-21T05:42:36.840Z,16.96
2022-08-21T05:45:07.880Z,17.13
2022-08-21T05:47:37.819Z,17.27
2022-08-21T05:50:09.063Z,17.35
2022-08-21T05:52:39.001Z,17.41
2022-08-21T05:55:11.435Z,17.30
2022-08-21T05:57:42.558Z,17.18
2022-08-21T06:00:14.846Z,16.98
2022-08-21T06:02:44.470Z,16.88
2022-08-21T06:05:14.585Z,16.87
2022-08-21T06:07:55.323Z,17.08
2022-08-21T06:10:26.660Z,17.17
2022-08-21T06:12:57.875Z,17.26
2022-08-21T06:15:27.859Z,17.35
2022-08-21T06:17:58.944Z,17.46
2022-08-21T06:20:29.544Z,17.43
2022-08-21T06:22:59.612Z,17.53
2022-08-21T06:25:31.561Z,17.64
2022-08-21T06:28:05.862Z,17.65
2022-08-21T06:30:36.799Z,17.59
2022-08-21T06:33:08.339Z,17.48
2022-08-21T06:35:41.614Z,17.36
2022-08-21T06:38:12.180Z,17.53
2022-08-21T06:40:47.114Z,17.66
2022-08-21T06:43:20.502Z,17.80
2022-08-21T06:45:50.383Z,17.90
2022-08-21T06:48:20.439Z,17.95
2022-08-21T06:53:35.802Z,18.05
2022-08-21T06:56:07.269Z,18.20
2022-08-21T06:58:37.145Z,18.23
2022-08-21T07:01:07.715Z,18.24
2022-08-21T07:03:41.460Z,18.33
2022-08-21T07:06:13.701Z,18.35
2022-08-21T07:08:45.320Z,18.44
2022-08-21T07:11:21.660Z,18.56
2022-08-21T07:13:54.123Z,18.68
2022-08-21T07:16:24.583Z,18.78
2022-08-21T07:18:54.424Z,18.91
2022-08-21T07:21:26.158Z,18.97
2022-08-21T07:23:57.903Z,19.02
2022-08-21T07:26:28.568Z,18.93
2022-08-21T07:28:58.845Z,18.84
2022-08-21T07:31:30.799Z,18.78
2022-08-21T07:34:01.424Z,18.77
2022-08-21T07:36:31.277Z,18.71
2022-08-21T07:39:04.881Z,18.56
2022-08-21T07:41:35.781Z,18.63
2022-08-21T07:44:06.582Z,18.75
2022-08-21T07:46:36.843Z,18.73
2022-08-21T07:49:06.763Z,18.81
2022-08-21T07:51:36.851Z,18.92
2022-08-21T07:54:08.176Z,18.97
2022-08-21T07:56:37.924Z,19.02
2022-08-21T07:59:07.587Z,19.06
2022-08-21T08:01:37.417Z,19.16
2022-08-21T08:04:07.499Z,19.21
2022-08-21T08:06:37.663Z,19.18
2022-08-21T08:09:08.849Z,19.12
2022-08-21T08:11:41.810Z,19.30
2022-08-21T08:14:11.628Z,19.52
2022-08-21T08:16:41.441Z,19.67
2022-08-21T08:19:11.176Z,19.81
2022-08-21T08:21:42.268Z,19.82
2022-08-21T08:24:18.982Z,19.72
2022-08-21T08:26:53.684Z,19.75
2022-08-21T08:29:24.271Z,19.75
2022-08-21T08:31:54.361Z,19.84
2022-08-21T08:34:25.691Z,19.80
2022-08-21T08:36:56.183Z,19.85
2022-08-21T08:39:29.687Z,19.98
2022-08-21T08:42:32.250Z,20.03
2022-08-21T08:45:05.720Z,20.05
2022-08-21T08:47:40.652Z,19.99
2022-08-21T08:50:18.594Z,20.05
2022-08-21T08:52:55.110Z,20.17
2022-08-21T08:55:35.848Z,20.30
2022-08-21T08:58:06.467Z,20.41
2022-08-21T09:00:37.282Z,20.48
2022-08-21T09:03:07.388Z,20.54
2022-08-21T09:05:49.443Z,20.52
2022-08-21T09:08:45.053Z,20.61
2022-08-21T09:11:29.486Z,20.75
2022-08-21T09:14:16.118Z,20.80
2022-08-21T09:16:56.965Z,20.87
2022-08-21T09:19:49.585Z,20.89
2022-08-21T09:22:31.673Z,20.88
2022-08-21T09:25:13.969Z,20.94
2022-08-21T09:27:44.862Z,20.87
2022-08-21T09:30:15.705Z,20.76
2022-08-21T09:32:46.002Z,20.62
2022-08-21T09:35:18.734Z,20.55
2022-08-21T09:37:56.572Z,20.62
2022-08-21T09:40:35.444Z,20.70
2022-08-21T09:43:15.084Z,20.62
2022-08-21T09:45:47.611Z,20.62
2022-08-21T09:48:22.362Z,20.68
2022-08-21T09:53:36.424Z,20.90
2022-08-21T09:56:36.260Z,20.97
2022-08-21T09:59:23.363Z,21.11
2022-08-21T10:01:56.386Z,21.16
2022-08-21T10:04:32.946Z,21.15
2022-08-21T10:07:14.004Z,21.28
2022-08-21T10:09:45.726Z,21.43
2022-08-21T10:12:25.358Z,21.52
2022-08-21T10:15:11.202Z,21.57
2022-08-21T10:30:00.338Z,21.38
2022-08-21T10:32:50.754Z,21.41
2022-08-21T10:35:31.741Z,21.46
2022-08-21T10:39:11.817Z,21.51
2022-08-21T10:42:04.629Z,21.45
2022-08-21T10:44:43.994Z,21.33
2022-08-21T10:47:24.494Z,21.21
2022-08-21T10:50:02.553Z,21.21
2022-08-21T10:52:59.958Z,21.32
2022-08-21T10:55:34.732Z,21.40
2022-08-21T10:58:12.730Z,21.33
2022-08-21T11:00:48.020Z,21.23
2022-08-21T11:03:24.334Z,21.16
2022-08-21T11:05:57.375Z,21.20
2022-08-21T11:08:33.674Z,21.18
2022-08-21T11:11:11.105Z,21.21
2022-08-21T11:13:48.079Z,21.31
2022-08-21T11:16:26.512Z,21.35
2022-08-21T11:19:05.374Z,21.39
2022-08-21T11:21:45.482Z,21.44
2022-08-21T11:24:31.279Z,21.59
2022-08-21T11:27:09.203Z,21.73
2022-08-21T11:29:42.353Z,21.75
2022-08-21T11:32:44.878Z,21.88
2022-08-21T11:35:22.354Z,22.01
2022-08-21T11:38:09.830Z,22.01
2022-08-21T11:41:15.355Z,22.05
2022-08-21T11:43:49.673Z,22.21
2022-08-21T11:46:34.390Z,22.31
2022-08-21T11:49:26.345Z,22.47
2022-08-21T11:52:10.602Z,22.57
2022-08-21T11:54:47.246Z,22.64
2022-08-21T11:57:24.345Z,22.76
2022-08-21T12:00:04.180Z,22.80
2022-08-21T12:02:39.173Z,22.85
2022-08-21T12:05:12.353Z,22.79
2022-08-21T12:07:45.457Z,22.91
2022-08-21T12:10:22.279Z,22.95
2022-08-21T12:12:52.053Z,23.08
2022-08-21T12:15:31.284Z,23.39
2022-08-21T12:18:04.540Z,23.54
2022-08-21T12:20:50.201Z,23.70
2022-08-21T12:23:30.826Z,23.80
2022-08-21T12:26:25.994Z,23.75
2022-08-21T12:29:15.274Z,23.73
2022-08-21T12:31:59.627Z,23.89
2022-08-21T12:34:38.054Z,23.92
2022-08-21T12:37:18.113Z,23.76
2022-08-21T12:39:54.204Z,23.56
2022-08-21T12:42:27.287Z,23.54
2022-08-21T12:45:01.363Z,23.35
2022-08-21T12:47:36.325Z,23.34
2022-08-21T12:53:44.973Z,23.31
2022-08-21T12:56:16.938Z,23.35
2022-08-21T12:58:49.334Z,23.43
2022-08-21T13:01:24.856Z,23.48
2022-08-21T13:04:04.962Z,23.46
2022-08-21T13:06:42.640Z,23.40
2022-08-21T13:09:18.145Z,23.40
2022-08-21T13:11:50.157Z,23.42
2022-08-21T13:14:34.600Z,23.43
2022-08-21T13:17:09.774Z,23.20
2022-08-21T13:19:39.453Z,23.11
2022-08-21T13:22:34.583Z,23.08
2022-08-21T13:27:41.243Z,22.88
2022-08-21T13:30:15.592Z,22.71
2022-08-21T13:32:50.022Z,22.65
2022-08-21T13:35:23.324Z,22.61
2022-08-21T13:37:54.428Z,22.48
2022-08-21T13:40:31.430Z,22.41
2022-08-21T13:43:03.314Z,22.35
2022-08-21T13:45:35.455Z,22.37
2022-08-21T13:48:07.563Z,22.28
2022-08-21T13:50:40.320Z,22.23
2022-08-21T13:53:25.075Z,22.27
2022-08-21T13:56:00.363Z,22.29
2022-08-21T13:58:33.731Z,22.27
2022-08-21T14:01:06.598Z,22.25
2022-08-21T14:03:40.738Z,22.26
2022-08-21T14:06:19.134Z,22.24
2022-08-21T14:08:55.896Z,22.26
2022-08-21T14:11:28.178Z,22.27
2022-08-21T14:14:04.973Z,22.32
2022-08-21T14:16:49.315Z,22.29
2022-08-21T14:19:24.304Z,22.29
2022-08-21T14:21:55.535Z,22.26
2022-08-21T14:24:35.763Z,22.27
2022-08-21T14:27:10.984Z,22.24
2022-08-21T14:29:44.599Z,22.16
2022-08-21T14:32:24.444Z,22.05
2022-08-21T14:34:55.262Z,21.93
2022-08-21T14:37:28.802Z,21.88
2022-08-21T14:39:58.380Z,21.85
2022-08-21T14:42:29.539Z,21.60
2022-08-21T14:45:03.812Z,21.51
2022-08-21T14:47:33.359Z,21.51
2022-08-21T14:50:02.774Z,21.58
2022-08-21T14:52:32.056Z,21.67
2022-08-21T14:55:01.493Z,21.67
2022-08-21T14:57:34.477Z,21.63
2022-08-21T15:00:04.119Z,21.61
2022-08-21T15:02:33.502Z,21.62
2022-08-21T15:05:02.945Z,21.65
2022-08-21T15:07:32.385Z,21.70
2022-08-21T15:10:01.938Z,21.75
2022-08-21T15:12:35.799Z,21.75
2022-08-21T15:15:06.864Z,21.73
2022-08-21T15:17:36.425Z,21.64
2022-08-21T15:20:08.811Z,21.60
2022-08-21T15:22:38.286Z,21.58
2022-08-21T15:25:08.825Z,21.60
2022-08-21T15:27:39.806Z,21.61
2022-08-21T15:30:11.038Z,21.56
2022-08-21T15:32:40.536Z,21.50
2022-08-21T15:35:10.691Z,21.45
2022-08-21T15:37:40.112Z,21.41
2022-08-21T15:40:11.635Z,21.41
2022-08-21T15:42:44.231Z,21.45
2022-08-21T15:45:15.618Z,21.48
2022-08-21T15:47:48.262Z,21.44
2022-08-21T15:53:39.535Z,21.33
2022-08-21T15:56:13.094Z,21.33
2022-08-21T15:58:42.754Z,21.32
2022-08-21T16:01:12.325Z,21.27
2022-08-21T16:03:42.438Z,21.08
2022-08-21T16:06:12.404Z,20.75
2022-08-21T16:08:43.698Z,20.61
2022-08-21T16:11:14.335Z,20.63
2022-08-21T16:13:46.597Z,20.70
2022-08-21T16:16:20.731Z,20.73
2022-08-21T16:18:51.477Z,20.70
2022-08-21T16:21:22.494Z,20.67
2022-08-21T16:23:53.423Z,20.65
2022-08-21T16:26:23.831Z,20.61
2022-08-21T16:28:58.107Z,20.56
2022-08-21T16:31:28.550Z,20.50
2022-08-21T16:34:00.047Z,20.42
2022-08-21T16:36:30.115Z,20.35
2022-08-21T16:39:03.362Z,20.37
2022-08-21T16:41:37.082Z,20.30
2022-08-21T16:44:08.677Z,20.18
2022-08-21T16:46:43.627Z,20.15
2022-08-21T16:49:13.176Z,20.18
2022-08-21T16:51:43.681Z,20.14
2022-08-21T16:54:15.373Z,20.03
2022-08-21T16:56:47.754Z,19.95
2022-08-21T16:59:17.908Z,19.92
2022-08-21T17:01:48.343Z,19.87
2022-08-21T17:04:17.796Z,19.86
2022-08-21T17:06:47.287Z,19.77
2022-08-21T17:09:18.137Z,19.70
2022-08-21T17:11:50.955Z,19.67
2022-08-21T17:14:24.122Z,19.67
2022-08-21T17:16:57.578Z,19.71
2022-08-21T17:19:27.096Z,19.65
2022-08-21T17:21:56.755Z,19.57
2022-08-21T17:24:27.741Z,19.60
2022-08-21T17:26:57.945Z,19.59
2022-08-21T17:29:36.554Z,19.57
2022-08-21T17:32:11.330Z,19.55
2022-08-21T17:34:42.021Z,19.57
2022-08-21T17:37:11.522Z,19.50
2022-08-21T17:39:42.444Z,19.42
2022-08-21T17:42:16.325Z,19.29
2022-08-21T17:44:48.543Z,19.26
2022-08-21T17:47:18.115Z,19.25
2022-08-21T17:49:47.932Z,19.24
2022-08-21T17:52:17.534Z,19.25
2022-08-21T17:54:48.385Z,19.20
2022-08-21T17:57:24.122Z,19.20
2022-08-21T17:59:58.069Z,19.18
2022-08-21T18:02:28.163Z,19.18
2022-08-21T18:04:57.834Z,19.19
2022-08-21T18:07:32.762Z,19.12
2022-08-21T18:10:06.216Z,19.02
2022-08-21T18:12:36.377Z,18.99
2022-08-21T18:15:08.335Z,18.97
2022-08-21T18:17:37.893Z,18.94
2022-08-21T18:20:09.892Z,18.91
2022-08-21T18:22:39.291Z,18.86
2022-08-21T18:25:11.615Z,18.81
2022-08-21T18:27:42.798Z,18.78
2022-08-21T18:30:14.533Z,18.76
2022-08-21T18:32:44.622Z,18.64
2022-08-21T18:35:15.746Z,18.51
2022-08-21T18:37:45.931Z,18.49
2022-08-21T18:40:17.185Z,18.53
2022-08-21T18:42:55.212Z,18.50
2022-08-21T18:45:26.272Z,18.38
2022-08-21T18:47:58.896Z,18.29
2022-08-21T18:53:36.305Z,17.99
2022-08-21T18:56:07.310Z,17.90
2022-08-21T18:58:58.652Z,17.87
2022-08-21T19:01:28.580Z,17.81
2022-08-21T19:03:58.193Z,17.60
2022-08-21T19:06:27.840Z,17.63
2022-08-21T19:09:01.634Z,17.72
2022-08-21T19:11:31.634Z,17.79
2022-08-21T19:14:01.505Z,17.83
2022-08-21T19:16:31.719Z,17.78
2022-08-21T19:19:04.037Z,17.56
2022-08-21T19:21:34.898Z,17.42
2022-08-21T19:24:17.393Z,17.47
2022-08-21T19:26:48.240Z,17.39
2022-08-21T19:29:22.380Z,17.50
2022-08-21T19:32:06.954Z,17.57
2022-08-21T19:34:38.835Z,17.58
2022-08-21T19:37:08.450Z,17.62
2022-08-21T19:39:46.481Z,17.59
2022-08-21T19:42:21.930Z,17.42
2022-08-21T19:44:57.402Z,17.38
2022-08-21T19:47:29.237Z,17.39
2022-08-21T19:50:04.327Z,17.45
2022-08-21T19:52:51.316Z,17.48
2022-08-21T19:55:38.439Z,17.39
2022-08-21T19:58:25.789Z,17.30
2022-08-21T20:00:55.429Z,17.21
2022-08-21T20:03:24.825Z,17.22
2022-08-21T20:05:54.410Z,17.24
2022-08-21T20:08:28.055Z,17.29
2022-08-21T20:13:52.038Z,17.32
2022-08-21T20:16:23.084Z,17.22
2022-08-21T20:18:53.149Z,17.14
2022-08-21T20:21:22.563Z,17.17
2022-08-21T20:23:52.671Z,17.22
2022-08-21T20:26:24.415Z,17.20
2022-08-21T20:28:55.544Z,17.05
2022-08-21T20:31:26.916Z,16.94
2022-08-21T20:33:57.924Z,16.89
2022-08-21T20:36:28.052Z,16.73
2022-08-21T20:38:57.494Z,16.69
2022-08-21T20:41:30.674Z,16.70
2022-08-21T20:44:01.502Z,16.72
2022-08-21T20:46:35.061Z,16.70
2022-08-21T20:49:04.780Z,16.73
2022-08-21T20:51:41.154Z,16.74
2022-08-21T20:54:22.522Z,16.72
2022-08-21T20:56:59.676Z,16.80
2022-08-21T20:59:47.498Z,16.75
2022-08-21T21:02:35.719Z,16.74
2022-08-21T21:05:22.730Z,16.74
2022-08-21T21:08:03.457Z,16.72
2022-08-21T21:10:40.385Z,16.82
2022-08-21T21:13:21.899Z,16.73
2022-08-21T21:15:56.578Z,16.69
2022-08-21T21:18:36.802Z,16.69
2022-08-21T21:21:16.979Z,16.73
2022-08-21T21:23:54.596Z,16.80
2022-08-21T21:26:32.358Z,16.86
2022-08-21T21:29:19.565Z,16.92
2022-08-21T21:31:52.713Z,16.97
2022-08-21T21:34:23.861Z,16.96
2022-08-21T21:37:02.033Z,16.99
2022-08-21T21:39:36.093Z,17.01
2022-08-21T21:42:41.960Z,17.04
2022-08-21T21:45:27.233Z,16.99
2022-08-21T21:48:11.813Z,16.95
2022-08-21T21:53:51.615Z,17.00
2022-08-21T21:56:29.957Z,16.96
2022-08-21T21:59:29.675Z,16.83
2022-08-21T22:02:08.221Z,16.95
2022-08-21T22:04:52.300Z,17.07
2022-08-21T22:07:32.025Z,17.17
2022-08-21T22:13:26.222Z,17.23
2022-08-21T22:15:56.855Z,17.23
2022-08-21T22:18:31.566Z,17.24
2022-08-21T22:21:06.811Z,17.20
2022-08-21T22:23:42.297Z,17.19
2022-08-21T22:26:19.857Z,17.15
2022-08-21T22:28:52.939Z,17.11
2022-08-21T22:31:26.154Z,17.13
2022-08-21T22:34:17.990Z,17.17
2022-08-21T22:37:00.237Z,17.22
2022-08-21T22:42:29.094Z,17.10
2022-08-21T22:45:02.548Z,17.04
2022-08-21T22:47:39.661Z,17.02
2022-08-21T22:50:22.002Z,17.04
2022-08-21T22:52:57.135Z,17.11
2022-08-21T22:55:32.401Z,17.07
2022-08-21T22:58:11.705Z,17.03
2022-08-21T23:00:56.612Z,16.96
2022-08-21T23:03:35.020Z,16.94
2022-08-21T23:06:24.774Z,16.84
2022-08-21T23:08:56.639Z,16.78
2022-08-21T23:11:41.195Z,16.77
2022-08-21T23:14:14.583Z,16.68
2022-08-21T23:16:54.457Z,16.72
2022-08-21T23:19:43.244Z,16.74
2022-08-21T23:22:38.416Z,16.72
2022-08-21T23:25:42.440Z,16.66
2022-08-21T23:28:27.163Z,16.63
2022-08-21T23:31:12.041Z,16.71
2022-08-21T23:37:25.941Z,16.71
2022-08-21T23:40:33.712Z,16.79
2022-08-21T23:43:24.770Z,16.83
2022-08-21T23:46:21.364Z,16.83
2022-08-21T23:49:20.171Z,16.91
2022-08-21T23:52:00.664Z,16.96
2022-08-21T23:54:42.503Z,17.02
2022-08-21T23:57:31.469Z,17.07
